sensor_id;sensor_type;location;lat;lon;timestamp;pressure;altitude;pressure_sealevel;temperature;humidity
72925;BME280;61070;50.794;7.054;2023-04-10T00:02:14;101491.88;;;6.13;86.52
72925;BME280;61070;50.794;7.054;2023-04-10T00:04:40;101488.50;;;6.22;86.43
72925;BME280;61070;50.794;7.054;2023-04-10T00:07:05;101481.41;;;6.17;86.25
72925;BME280;61070;50.794;7.054;2023-04-10T00:09:31;101488.38;;;6.15;86.69
72925;BME280;61070;50.794;7.054;2023-04-10T00:11:56;101482.22;;;6.14;86.49
72925;BME280;61070;50.794;7.054;2023-04-10T00:14:21;101477.91;;;6.18;86.43
72925;BME280;61070;50.794;7.054;2023-04-10T00:16:50;101476.13;;;6.17;86.87
72925;BME280;61070;50.794;7.054;2023-04-10T00:19:15;101477.78;;;6.11;86.31
72925;BME280;61070;50.794;7.054;2023-04-10T00:21:41;101468.84;;;6.00;86.90
72925;BME280;61070;50.794;7.054;2023-04-10T00:24:07;101470.50;;;5.98;87.14
72925;BME280;61070;50.794;7.054;2023-04-10T00:26:33;101468.88;;;6.03;86.40
72925;BME280;61070;50.794;7.054;2023-04-10T00:28:59;101471.47;;;6.02;86.60
72925;BME280;61070;50.794;7.054;2023-04-10T00:31:24;101465.38;;;6.03;86.81
72925;BME280;61070;50.794;7.054;2023-04-10T00:33:50;101464.53;;;6.05;86.76
72925;BME280;61070;50.794;7.054;2023-04-10T00:36:17;101460.09;;;6.01;86.44
72925;BME280;61070;50.794;7.054;2023-04-10T00:38:42;101457.38;;;5.98;86.94
72925;BME280;61070;50.794;7.054;2023-04-10T00:41:08;101453.06;;;6.00;86.74
72925;BME280;61070;50.794;7.054;2023-04-10T00:43:33;101459.09;;;5.96;87.52
72925;BME280;61070;50.794;7.054;2023-04-10T00:45:58;101449.22;;;5.86;88.09
72925;BME280;61070;50.794;7.054;2023-04-10T00:48:24;101451.31;;;6.01;86.88
72925;BME280;61070;50.794;7.054;2023-04-10T00:50:50;101460.03;;;6.00;87.71
72925;BME280;61070;50.794;7.054;2023-04-10T00:53:15;101453.97;;;6.02;87.36
72925;BME280;61070;50.794;7.054;2023-04-10T00:55:42;101449.47;;;5.97;87.26
72925;BME280;61070;50.794;7.054;2023-04-10T00:58:07;101447.72;;;5.97;87.52
72925;BME280;61070;50.794;7.054;2023-04-10T01:00:35;101442.41;;;5.94;87.72
72925;BME280;61070;50.794;7.054;2023-04-10T01:03:00;101442.41;;;5.94;87.43
72925;BME280;61070;50.794;7.054;2023-04-10T01:05:34;101434.47;;;5.91;87.45
72925;BME280;61070;50.794;7.054;2023-04-10T01:11:03;101439.53;;;5.83;88.39
72925;BME280;61070;50.794;7.054;2023-04-10T01:13:35;101435.13;;;5.81;88.60
72925;BME280;61070;50.794;7.054;2023-04-10T01:16:26;101434.16;;;5.77;88.86
72925;BME280;61070;50.794;7.054;2023-04-10T01:19:07;101429.84;;;5.81;88.80
72925;BME280;61070;50.794;7.054;2023-04-10T01:21:36;101428.97;;;5.80;88.45
72925;BME280;61070;50.794;7.054;2023-04-10T01:24:19;101426.22;;;5.74;88.47
72925;BME280;61070;50.794;7.054;2023-04-10T01:29:51;101427.84;;;5.68;89.58
72925;BME280;61070;50.794;7.054;2023-04-10T01:32:21;101417.28;;;5.66;89.34
72925;BME280;61070;50.794;7.054;2023-04-10T01:34:49;101411.13;;;5.66;89.63
72925;BME280;61070;50.794;7.054;2023-04-10T01:39:50;101401.63;;;5.71;88.98
72925;BME280;61070;50.794;7.054;2023-04-10T01:42:20;101398.72;;;5.57;90.05
72925;BME280;61070;50.794;7.054;2023-04-10T01:44:47;101388.25;;;5.60;90.41
72925;BME280;61070;50.794;7.054;2023-04-10T01:47:14;101396.06;;;5.55;90.81
72925;BME280;61070;50.794;7.054;2023-04-10T01:49:44;101383.59;;;5.45;91.33
72925;BME280;61070;50.794;7.054;2023-04-10T01:52:11;101398.69;;;5.55;91.27
72925;BME280;61070;50.794;7.054;2023-04-10T01:54:37;101392.22;;;5.40;91.43
72925;BME280;61070;50.794;7.054;2023-04-10T01:57:03;101393.16;;;5.43;91.83
72925;BME280;61070;50.794;7.054;2023-04-10T01:59:29;101387.09;;;5.44;91.69
72925;BME280;61070;50.794;7.054;2023-04-10T02:01:59;101391.34;;;5.39;91.56
72925;BME280;61070;50.794;7.054;2023-04-10T02:04:25;101381.69;;;5.38;91.72
72925;BME280;61070;50.794;7.054;2023-04-10T02:12:09;101374.69;;;5.39;92.01
72925;BME280;61070;50.794;7.054;2023-04-10T02:14:41;101361.50;;;5.36;92.25
72925;BME280;61070;50.794;7.054;2023-04-10T02:17:07;101353.63;;;5.36;91.97
72925;BME280;61070;50.794;7.054;2023-04-10T02:19:34;101353.63;;;5.36;91.24
72925;BME280;61070;50.794;7.054;2023-04-10T02:22:00;101353.59;;;5.33;91.41
72925;BME280;61070;50.794;7.054;2023-04-10T02:24:26;101351.94;;;5.39;91.58
72925;BME280;61070;50.794;7.054;2023-04-10T02:26:52;101350.97;;;5.33;91.69
72925;BME280;61070;50.794;7.054;2023-04-10T02:29:18;101353.59;;;5.33;91.68
72925;BME280;61070;50.794;7.054;2023-04-10T02:31:44;101357.00;;;5.30;92.17
72925;BME280;61070;50.794;7.054;2023-04-10T02:34:10;101349.25;;;5.35;91.71
72925;BME280;61070;50.794;7.054;2023-04-10T02:36:37;101347.41;;;5.32;92.08
72925;BME280;61070;50.794;7.054;2023-04-10T02:39:03;101346.63;;;5.35;92.08
72925;BME280;61070;50.794;7.054;2023-04-10T02:41:28;101355.22;;;5.28;92.65
72925;BME280;61070;50.794;7.054;2023-04-10T02:43:53;101363.06;;;5.26;92.93
72925;BME280;61070;50.794;7.054;2023-04-10T02:46:19;101348.28;;;5.31;92.71
72925;BME280;61070;50.794;7.054;2023-04-10T02:48:44;101355.19;;;5.26;93.22
72925;BME280;61070;50.794;7.054;2023-04-10T02:51:10;101360.44;;;5.26;93.39
72925;BME280;61070;50.794;7.054;2023-04-10T02:53:35;101367.47;;;5.27;93.09
72925;BME280;61070;50.794;7.054;2023-04-10T02:56:00;101373.53;;;5.24;92.99
72925;BME280;61070;50.794;7.054;2023-04-10T02:58:26;101381.44;;;5.24;92.64
72925;BME280;61070;50.794;7.054;2023-04-10T03:00:52;101366.53;;;5.23;92.53
72925;BME280;61070;50.794;7.054;2023-04-10T03:03:18;101358.69;;;5.25;92.29
72925;BME280;61070;50.794;7.054;2023-04-10T03:05:43;101363.91;;;5.23;92.57
72925;BME280;61070;50.794;7.054;2023-04-10T03:08:11;101356.00;;;5.22;92.01
72925;BME280;61070;50.794;7.054;2023-04-10T03:10:37;101350.78;;;5.25;91.46
72925;BME280;61070;50.794;7.054;2023-04-10T03:13:02;101350.59;;;5.16;91.78
72925;BME280;61070;50.794;7.054;2023-04-10T03:15:27;101340.91;;;5.12;92.27
72925;BME280;61070;50.794;7.054;2023-04-10T03:17:53;101341.69;;;5.09;92.58
72925;BME280;61070;50.794;7.054;2023-04-10T03:20:18;101340.00;;;5.10;92.39
72925;BME280;61070;50.794;7.054;2023-04-10T03:22:43;101351.28;;;5.07;92.20
72925;BME280;61070;50.794;7.054;2023-04-10T03:25:08;101342.53;;;5.07;92.16
72925;BME280;61070;50.794;7.054;2023-04-10T03:27:34;101340.75;;;5.06;92.46
72925;BME280;61070;50.794;7.054;2023-04-10T03:30:00;101344.19;;;5.02;92.52
72925;BME280;61070;50.794;7.054;2023-04-10T03:32:27;101337.97;;;4.98;92.80
72925;BME280;61070;50.794;7.054;2023-04-10T03:34:55;101329.34;;;5.04;92.63
72925;BME280;61070;50.794;7.054;2023-04-10T03:37:20;101334.56;;;5.02;92.35
72925;BME280;61070;50.794;7.054;2023-04-10T03:39:45;101331.91;;;5.01;92.87
72925;BME280;61070;50.794;7.054;2023-04-10T03:42:11;101317.88;;;4.99;92.95
72925;BME280;61070;50.794;7.054;2023-04-10T03:44:36;101321.28;;;4.96;93.23
72925;BME280;61070;50.794;7.054;2023-04-10T03:47:02;101316.16;;;5.01;93.00
72925;BME280;61070;50.794;7.054;2023-04-10T03:49:27;101310.81;;;4.97;92.78
72925;BME280;61070;50.794;7.054;2023-04-10T03:51:53;101311.59;;;4.92;93.58
72925;BME280;61070;50.794;7.054;2023-04-10T03:54:18;101308.06;;;4.90;93.61
72925;BME280;61070;50.794;7.054;2023-04-10T03:56:43;101305.47;;;4.91;93.92
72925;BME280;61070;50.794;7.054;2023-04-10T03:59:09;101308.94;;;4.90;94.42
72925;BME280;61070;50.794;7.054;2023-04-10T04:01:34;101305.47;;;4.91;94.71
72925;BME280;61070;50.794;7.054;2023-04-10T04:03:59;101310.88;;;4.99;93.76
72925;BME280;61070;50.794;7.054;2023-04-10T04:06:25;101306.53;;;5.00;92.79
72925;BME280;61070;50.794;7.054;2023-04-10T04:08:51;101293.47;;;5.04;92.57
72925;BME280;61070;50.794;7.054;2023-04-10T04:11:16;101281.13;;;4.99;92.63
72925;BME280;61070;50.794;7.054;2023-04-10T04:13:42;101289.03;;;5.00;92.64
72925;BME280;61070;50.794;7.054;2023-04-10T04:16:08;101283.63;;;4.94;92.97
72925;BME280;61070;50.794;7.054;2023-04-10T04:18:33;101281.91;;;4.94;93.56
72925;BME280;61070;50.794;7.054;2023-04-10T04:20:59;101291.31;;;4.85;93.30
72925;BME280;61070;50.794;7.054;2023-04-10T04:23:24;101286.09;;;4.86;93.27
72925;BME280;61070;50.794;7.054;2023-04-10T04:25:49;101293.91;;;4.83;93.24
72925;BME280;61070;50.794;7.054;2023-04-10T04:28:17;101291.28;;;4.83;93.20
72925;BME280;61070;50.794;7.054;2023-04-10T04:30:42;101285.22;;;4.86;93.16
72925;BME280;61070;50.794;7.054;2023-04-10T04:33:07;101282.50;;;4.81;93.20
72925;BME280;61070;50.794;7.054;2023-04-10T04:35:33;101290.31;;;4.78;93.46
72925;BME280;61070;50.794;7.054;2023-04-10T04:37:58;101292.84;;;4.75;93.26
72925;BME280;61070;50.794;7.054;2023-04-10T04:40:23;101303.28;;;4.72;93.54
72925;BME280;61070;50.794;7.054;2023-04-10T04:42:49;101301.47;;;4.68;93.55
72925;BME280;61070;50.794;7.054;2023-04-10T04:45:14;101303.28;;;4.71;93.59
72925;BME280;61070;50.794;7.054;2023-04-10T04:47:39;101305.16;;;4.76;93.58
72925;BME280;61070;50.794;7.054;2023-04-10T04:50:05;101301.72;;;4.80;92.80
72925;BME280;61070;50.794;7.054;2023-04-10T04:52:31;101299.16;;;4.83;92.49
72925;BME280;61070;50.794;7.054;2023-04-10T04:54:56;101304.38;;;4.82;92.36
72925;BME280;61070;50.794;7.054;2023-04-10T04:57:21;101298.31;;;4.84;92.26
72925;BME280;61070;50.794;7.054;2023-04-10T04:59:47;101304.56;;;4.89;92.08
72925;BME280;61070;50.794;7.054;2023-04-10T05:02:12;101297.66;;;4.94;91.80
72925;BME280;61070;50.794;7.054;2023-04-10T05:04:37;101297.66;;;4.94;91.75
72925;BME280;61070;50.794;7.054;2023-04-10T05:07:02;101293.41;;;5.00;91.45
72925;BME280;61070;50.794;7.054;2023-04-10T05:09:28;101288.38;;;5.12;90.81
72925;BME280;61070;50.794;7.054;2023-04-10T05:11:53;101291.88;;;5.11;90.48
72925;BME280;61070;50.794;7.054;2023-04-10T05:14:19;101288.41;;;5.13;90.56
72925;BME280;61070;50.794;7.054;2023-04-10T05:16:45;101291.91;;;5.12;90.36
72925;BME280;61070;50.794;7.054;2023-04-10T05:19:10;101288.31;;;5.09;90.56
72925;BME280;61070;50.794;7.054;2023-04-10T05:21:36;101286.56;;;5.09;90.86
72925;BME280;61070;50.794;7.054;2023-04-10T05:24:02;101288.31;;;5.09;90.72
72925;BME280;61070;50.794;7.054;2023-04-10T05:26:27;101286.69;;;5.15;90.77
72925;BME280;61070;50.794;7.054;2023-04-10T05:28:52;101293.75;;;5.19;91.00
72925;BME280;61070;50.794;7.054;2023-04-10T05:31:18;101299.13;;;5.24;91.08
72925;BME280;61070;50.794;7.054;2023-04-10T05:33:43;101291.44;;;5.33;90.78
72925;BME280;61070;50.794;7.054;2023-04-10T05:36:09;101295.03;;;5.40;90.61
72925;BME280;61070;50.794;7.054;2023-04-10T05:38:35;101289.97;;;5.49;90.42
72925;BME280;61070;50.794;7.054;2023-04-10T05:41:00;101292.78;;;5.60;90.09
72925;BME280;61070;50.794;7.054;2023-04-10T05:43:25;101285.03;;;5.67;90.02
72925;BME280;61070;50.794;7.054;2023-04-10T05:45:51;101292.31;;;5.83;89.97
72925;BME280;61070;50.794;7.054;2023-04-10T05:48:16;101299.56;;;5.97;89.43
72925;BME280;61070;50.794;7.054;2023-04-10T05:50:41;101297.97;;;6.06;88.96
72925;BME280;61070;50.794;7.054;2023-04-10T05:53:11;101302.63;;;6.23;88.95
72925;BME280;61070;50.794;7.054;2023-04-10T05:55:37;101309.84;;;6.36;88.79
72925;BME280;61070;50.794;7.054;2023-04-10T05:58:02;101308.34;;;6.53;87.42
72925;BME280;61070;50.794;7.054;2023-04-10T06:00:27;101308.53;;;6.67;87.54
72925;BME280;61070;50.794;7.054;2023-04-10T06:02:53;101301.63;;;6.77;87.50
72925;BME280;61070;50.794;7.054;2023-04-10T06:05:18;101300.69;;;6.70;87.32
72925;BME280;61070;50.794;7.054;2023-04-10T06:07:43;101304.25;;;6.75;87.11
72925;BME280;61070;50.794;7.054;2023-04-10T06:10:09;101296.47;;;6.83;86.75
72925;BME280;61070;50.794;7.054;2023-04-10T06:12:35;101297.34;;;6.82;86.60
72925;BME280;61070;50.794;7.054;2023-04-10T06:15:00;101292.97;;;6.85;86.18
72925;BME280;61070;50.794;7.054;2023-04-10T06:17:25;101288.66;;;6.90;85.31
72925;BME280;61070;50.794;7.054;2023-04-10T06:19:52;101291.38;;;6.98;84.86
72925;BME280;61070;50.794;7.054;2023-04-10T06:22:17;101290.63;;;7.08;84.48
72925;BME280;61070;50.794;7.054;2023-04-10T06:24:42;101285.38;;;7.10;84.28
72925;BME280;61070;50.794;7.054;2023-04-10T06:27:08;101276.72;;;7.18;84.11
72925;BME280;61070;50.794;7.054;2023-04-10T06:29:33;101281.19;;;7.25;84.33
72925;BME280;61070;50.794;7.054;2023-04-10T06:31:58;101275.09;;;7.31;84.00
72925;BME280;61070;50.794;7.054;2023-04-10T06:34:24;101278.69;;;7.39;84.10
72925;BME280;61070;50.794;7.054;2023-04-10T06:36:50;101280.56;;;7.49;83.01
72925;BME280;61070;50.794;7.054;2023-04-10T06:39:16;101273.63;;;7.61;83.49
72925;BME280;61070;50.794;7.054;2023-04-10T06:41:41;101279.09;;;7.82;83.33
72925;BME280;61070;50.794;7.054;2023-04-10T06:44:06;101280.09;;;7.96;80.89
72925;BME280;61070;50.794;7.054;2023-04-10T06:46:32;101291.78;;;8.27;79.08
72925;BME280;61070;50.794;7.054;2023-04-10T06:48:57;101295.47;;;8.52;75.62
72925;BME280;61070;50.794;7.054;2023-04-10T06:51:24;101294.69;;;8.67;75.82
72925;BME280;61070;50.794;7.054;2023-04-10T06:53:50;101294.78;;;8.88;74.31
72925;BME280;61070;50.794;7.054;2023-04-10T06:56:15;101294.84;;;8.96;73.85
72925;BME280;61070;50.794;7.054;2023-04-10T06:58:40;101293.13;;;9.09;72.91
72925;BME280;61070;50.794;7.054;2023-04-10T07:01:05;101289.63;;;9.23;71.49
72925;BME280;61070;50.794;7.054;2023-04-10T07:03:31;101290.56;;;9.42;70.80
72925;BME280;61070;50.794;7.054;2023-04-10T07:05:56;101294.09;;;9.50;71.29
72925;BME280;61070;50.794;7.054;2023-04-10T07:08:22;101291.47;;;9.55;69.85
72925;BME280;61070;50.794;7.054;2023-04-10T07:10:47;101283.56;;;9.67;69.56
72925;BME280;61070;50.794;7.054;2023-04-10T07:13:12;101285.31;;;9.62;70.16
72925;BME280;61070;50.794;7.054;2023-04-10T07:15:38;101287.97;;;9.82;68.43
72925;BME280;61070;50.794;7.054;2023-04-10T07:18:04;101276.50;;;9.95;67.57
72925;BME280;61070;50.794;7.054;2023-04-10T07:20:30;101273.00;;;10.10;67.17
72925;BME280;61070;50.794;7.054;2023-04-10T07:22:56;101272.09;;;10.20;65.59
72925;BME280;61070;50.794;7.054;2023-04-10T07:25:21;101275.66;;;10.25;66.44
72925;BME280;61070;50.794;7.054;2023-04-10T07:30:06;101265.88;;;10.50;64.63
72925;BME280;61070;50.794;7.054;2023-04-10T07:32:32;101265.88;;;10.59;65.03
72925;BME280;61070;50.794;7.054;2023-04-10T07:34:59;101249.03;;;10.72;63.79
72925;BME280;61070;50.794;7.054;2023-04-10T07:37:24;101264.88;;;10.91;62.97
72925;BME280;61070;50.794;7.054;2023-04-10T07:39:49;101257.72;;;11.08;63.02
72925;BME280;61070;50.794;7.054;2023-04-10T07:42:15;101253.25;;;11.18;62.44
72925;BME280;61070;50.794;7.054;2023-04-10T07:44:41;101255.00;;;11.22;62.33
72925;BME280;61070;50.794;7.054;2023-04-10T07:47:06;101239.97;;;11.21;60.87
72925;BME280;61070;50.794;7.054;2023-04-10T07:49:31;101239.09;;;11.19;59.71
72925;BME280;61070;50.794;7.054;2023-04-10T07:51:57;101247.03;;;11.25;60.53
72925;BME280;61070;50.794;7.054;2023-04-10T07:54:22;101239.09;;;11.19;60.12
72925;BME280;61070;50.794;7.054;2023-04-10T07:56:51;101238.25;;;11.15;61.81
72925;BME280;61070;50.794;7.054;2023-04-10T07:59:17;101234.66;;;11.19;61.01
72925;BME280;61070;50.794;7.054;2023-04-10T08:01:42;101229.28;;;11.34;59.81
72925;BME280;61070;50.794;7.054;2023-04-10T08:04:07;101238.09;;;11.40;59.84
72925;BME280;61070;50.794;7.054;2023-04-10T08:06:33;101231.88;;;11.41;60.04
72925;BME280;61070;50.794;7.054;2023-04-10T08:08:58;101231.78;;;11.54;60.41
72925;BME280;61070;50.794;7.054;2023-04-10T08:11:28;101224.63;;;11.69;59.08
72925;BME280;61070;50.794;7.054;2023-04-10T08:13:55;101229.16;;;11.56;58.94
72925;BME280;61070;50.794;7.054;2023-04-10T08:16:25;101228.22;;;11.60;58.10
72925;BME280;61070;50.794;7.054;2023-04-10T08:18:51;101231.59;;;11.77;58.25
72925;BME280;61070;50.794;7.054;2023-04-10T08:21:18;101220.97;;;11.85;56.86
72925;BME280;61070;50.794;7.054;2023-04-10T08:23:44;101223.59;;;11.91;57.64
72925;BME280;61070;50.794;7.054;2023-04-10T08:26:10;101221.78;;;11.94;57.14
72925;BME280;61070;50.794;7.054;2023-04-10T08:28:36;101210.06;;;12.15;55.05
72925;BME280;61070;50.794;7.054;2023-04-10T08:31:02;101209.09;;;12.21;55.05
72925;BME280;61070;50.794;7.054;2023-04-10T08:33:27;101207.19;;;12.34;55.31
72925;BME280;61070;50.794;7.054;2023-04-10T08:35:52;101203.50;;;12.48;55.63
72925;BME280;61070;50.794;7.054;2023-04-10T08:38:17;101197.88;;;12.73;56.02
72925;BME280;61070;50.794;7.054;2023-04-10T08:40:45;101198.56;;;12.87;55.58
72925;BME280;61070;50.794;7.054;2023-04-10T08:43:10;101195.00;;;12.88;53.07
72925;BME280;61070;50.794;7.054;2023-04-10T08:45:36;101191.56;;;12.81;53.49
72925;BME280;61070;50.794;7.054;2023-04-10T08:48:04;101183.34;;;12.98;53.50
72925;BME280;61070;50.794;7.054;2023-04-10T08:50:32;101172.66;;;13.04;52.83
72925;BME280;61070;50.794;7.054;2023-04-10T08:53:04;101174.75;;;12.81;52.44
72925;BME280;61070;50.794;7.054;2023-04-10T08:55:30;101175.25;;;13.07;52.43
72925;BME280;61070;50.794;7.054;2023-04-10T08:57:55;101177.03;;;13.07;52.02
72925;BME280;61070;50.794;7.054;2023-04-10T09:00:21;101161.19;;;12.99;51.33
72925;BME280;61070;50.794;7.054;2023-04-10T09:02:46;101167.13;;;13.20;51.24
72925;BME280;61070;50.794;7.054;2023-04-10T09:05:11;101155.25;;;13.42;50.99
72925;BME280;61070;50.794;7.054;2023-04-10T09:07:37;101144.28;;;13.60;50.65
72925;BME280;61070;50.794;7.054;2023-04-10T09:10:03;101144.38;;;13.54;50.51
72925;BME280;61070;50.794;7.054;2023-04-10T09:12:28;101130.84;;;13.66;50.00
72925;BME280;61070;50.794;7.054;2023-04-10T09:14:55;101132.75;;;13.61;49.98
72925;BME280;61070;50.794;7.054;2023-04-10T09:17:22;101127.56;;;13.52;49.75
72925;BME280;61070;50.794;7.054;2023-04-10T09:19:50;101113.03;;;13.72;51.01
72925;BME280;61070;50.794;7.054;2023-04-10T09:22:33;101113.97;;;13.67;50.74
72925;BME280;61070;50.794;7.054;2023-04-10T09:25:00;101107.72;;;13.72;50.41
72925;BME280;61070;50.794;7.054;2023-04-10T09:27:34;101109.31;;;13.80;51.06
72925;BME280;61070;50.794;7.054;2023-04-10T09:30:00;101101.91;;;13.96;50.40
72925;BME280;61070;50.794;7.054;2023-04-10T09:32:44;101095.88;;;13.86;50.00
72925;BME280;61070;50.794;7.054;2023-04-10T09:35:14;101096.09;;;13.76;50.25
72925;BME280;61070;50.794;7.054;2023-04-10T09:37:41;101101.97;;;13.93;49.58
72925;BME280;61070;50.794;7.054;2023-04-10T09:40:24;101088.63;;;13.94;49.57
72925;BME280;61070;50.794;7.054;2023-04-10T09:42:50;101094.78;;;13.98;49.62
72925;BME280;61070;50.794;7.054;2023-04-10T09:45:15;101101.28;;;13.83;49.97
72925;BME280;61070;50.794;7.054;2023-04-10T09:48:05;101114.16;;;14.06;48.75
72925;BME280;61070;50.794;7.054;2023-04-10T09:50:38;101105.84;;;14.21;48.74
72925;BME280;61070;50.794;7.054;2023-04-10T09:53:05;101103.44;;;14.09;48.51
72925;BME280;61070;50.794;7.054;2023-04-10T09:55:34;101100.19;;;14.37;48.94
72925;BME280;61070;50.794;7.054;2023-04-10T09:58:00;101097.22;;;14.53;49.05
72925;BME280;61070;50.794;7.054;2023-04-10T10:00:27;101085.41;;;14.65;48.48
72925;BME280;61070;50.794;7.054;2023-04-10T10:02:54;101085.63;;;14.93;49.21
72925;BME280;61070;50.794;7.054;2023-04-10T10:05:21;101083.56;;;15.04;47.94
72925;BME280;61070;50.794;7.054;2023-04-10T10:07:51;101088.00;;;15.07;47.56
72925;BME280;61070;50.794;7.054;2023-04-10T10:10:17;101086.81;;;15.17;47.40
72925;BME280;61070;50.794;7.054;2023-04-10T10:12:45;101081.44;;;15.20;47.22
72925;BME280;61070;50.794;7.054;2023-04-10T10:15:20;101069.47;;;15.35;47.76
72925;BME280;61070;50.794;7.054;2023-04-10T10:18:35;101057.59;;;15.47;46.02
72925;BME280;61070;50.794;7.054;2023-04-10T10:21:03;101066.41;;;15.50;45.61
72925;BME280;61070;50.794;7.054;2023-04-10T10:23:30;101050.28;;;15.55;44.94
72925;BME280;61070;50.794;7.054;2023-04-10T10:25:57;101055.84;;;15.46;45.72
72925;BME280;61070;50.794;7.054;2023-04-10T10:28:24;101049.63;;;15.45;45.68
72925;BME280;61070;50.794;7.054;2023-04-10T10:30:52;101045.78;;;15.57;45.32
72925;BME280;61070;50.794;7.054;2023-04-10T10:33:18;101036.81;;;15.92;45.37
72925;BME280;61070;50.794;7.054;2023-04-10T10:35:45;101041.69;;;16.07;45.62
72925;BME280;61070;50.794;7.054;2023-04-10T10:38:11;101026.38;;;16.14;44.65
72925;BME280;61070;50.794;7.054;2023-04-10T10:43:24;101011.25;;;16.42;43.76
72925;BME280;61070;50.794;7.054;2023-04-10T10:46:00;100998.31;;;16.56;44.05
72925;BME280;61070;50.794;7.054;2023-04-10T10:48:26;100990.25;;;16.58;43.51
72925;BME280;61070;50.794;7.054;2023-04-10T10:50:57;100977.53;;;16.65;42.92
72925;BME280;61070;50.794;7.054;2023-04-10T10:53:30;100978.78;;;16.82;42.41
72925;BME280;61070;50.794;7.054;2023-04-10T10:55:55;100972.38;;;16.88;43.05
72925;BME280;61070;50.794;7.054;2023-04-10T10:58:53;100957.53;;;16.78;42.14
72925;BME280;61070;50.794;7.054;2023-04-10T11:01:20;100954.13;;;16.99;41.92
72925;BME280;61070;50.794;7.054;2023-04-10T11:03:46;100946.31;;;16.93;40.54
72925;BME280;61070;50.794;7.054;2023-04-10T11:06:15;100938.28;;;16.93;41.90
72925;BME280;61070;50.794;7.054;2023-04-10T11:08:50;100927.09;;;17.07;40.46
72925;BME280;61070;50.794;7.054;2023-04-10T11:11:23;100928.81;;;17.08;41.91
72925;BME280;61070;50.794;7.054;2023-04-10T11:16:18;100920.84;;;17.06;40.53
72925;BME280;61070;50.794;7.054;2023-04-10T11:21:13;100904.78;;;17.31;40.58
72925;BME280;61070;50.794;7.054;2023-04-10T11:31:43;100891.06;;;17.64;40.00
72925;BME280;61070;50.794;7.054;2023-04-10T11:34:10;100881.72;;;17.75;39.70
72925;BME280;61070;50.794;7.054;2023-04-10T11:36:39;100873.66;;;17.52;39.60
72925;BME280;61070;50.794;7.054;2023-04-10T11:39:07;100874.25;;;17.84;38.84
72925;BME280;61070;50.794;7.054;2023-04-10T11:41:35;100868.56;;;17.69;36.63
72925;BME280;61070;50.794;7.054;2023-04-10T11:44:04;100866.09;;;17.63;36.71
72925;BME280;61070;50.794;7.054;2023-04-10T11:46:30;100868.03;;;17.60;35.15
72925;BME280;61070;50.794;7.054;2023-04-10T11:49:00;100860.66;;;17.65;34.22
72925;BME280;61070;50.794;7.054;2023-04-10T11:51:26;100847.41;;;17.62;35.82
72925;BME280;61070;50.794;7.054;2023-04-10T11:54:15;100855.63;;;17.81;36.56
72925;BME280;61070;50.794;7.054;2023-04-10T11:56:43;100844.44;;;17.93;36.57
72925;BME280;61070;50.794;7.054;2023-04-10T11:59:08;100843.25;;;17.78;35.78
72925;BME280;61070;50.794;7.054;2023-04-10T12:01:36;100846.91;;;17.97;35.70
72925;BME280;61070;50.794;7.054;2023-04-10T12:04:02;100834.44;;;18.18;34.87
72925;BME280;61070;50.794;7.054;2023-04-10T12:06:27;100837.19;;;18.17;33.20
72925;BME280;61070;50.794;7.054;2023-04-10T12:08:53;100836.44;;;17.91;33.69
72925;BME280;61070;50.794;7.054;2023-04-10T12:11:20;100837.94;;;17.98;33.66
72925;BME280;61070;50.794;7.054;2023-04-10T12:13:51;100833.94;;;17.87;34.30
72925;BME280;61070;50.794;7.054;2023-04-10T12:16:16;100827.31;;;17.73;33.97
72925;BME280;61070;50.794;7.054;2023-04-10T12:18:42;100820.97;;;17.98;33.51
72925;BME280;61070;50.794;7.054;2023-04-10T12:21:08;100817.00;;;18.08;34.27
72925;BME280;61070;50.794;7.054;2023-04-10T12:23:35;100817.00;;;18.08;34.64
72925;BME280;61070;50.794;7.054;2023-04-10T12:26:13;100810.94;;;18.25;33.61
72925;BME280;61070;50.794;7.054;2023-04-10T12:28:41;100800.75;;;18.11;33.81
72925;BME280;61070;50.794;7.054;2023-04-10T12:31:13;100800.53;;;18.17;33.34
72925;BME280;61070;50.794;7.054;2023-04-10T12:33:38;100789.16;;;18.11;33.07
72925;BME280;61070;50.794;7.054;2023-04-10T12:36:04;100786.69;;;18.06;33.59
72925;BME280;61070;50.794;7.054;2023-04-10T12:38:40;100782.31;;;18.25;33.76
72925;BME280;61070;50.794;7.054;2023-04-10T12:41:07;100780.69;;;18.21;33.70
72925;BME280;61070;50.794;7.054;2023-04-10T12:43:40;100787.00;;;18.41;33.63
72925;BME280;61070;50.794;7.054;2023-04-10T12:46:08;100785.53;;;18.54;33.01
72925;BME280;61070;50.794;7.054;2023-04-10T12:48:34;100783.06;;;18.49;34.06
72925;BME280;61070;50.794;7.054;2023-04-10T12:51:00;100772.34;;;18.49;33.80
72925;BME280;61070;50.794;7.054;2023-04-10T12:53:26;100765.88;;;18.53;33.56
72925;BME280;61070;50.794;7.054;2023-04-10T12:56:02;100761.69;;;18.68;33.31
72925;BME280;61070;50.794;7.054;2023-04-10T12:58:29;100767.22;;;18.63;33.98
72925;BME280;61070;50.794;7.054;2023-04-10T13:01:02;100767.25;;;18.84;34.28
72925;BME280;61070;50.794;7.054;2023-04-10T13:03:28;100781.03;;;19.15;33.94
72925;BME280;61070;50.794;7.054;2023-04-10T13:05:53;100768.09;;;19.05;33.83
72925;BME280;61070;50.794;7.054;2023-04-10T13:08:20;100775.13;;;19.07;33.49
72925;BME280;61070;50.794;7.054;2023-04-10T13:10:45;100758.06;;;19.08;33.64
72925;BME280;61070;50.794;7.054;2023-04-10T13:13:11;100767.44;;;18.79;33.69
72925;BME280;61070;50.794;7.054;2023-04-10T13:15:37;100749.03;;;18.90;33.84
72925;BME280;61070;50.794;7.054;2023-04-10T13:18:03;100750.25;;;19.04;34.35
72925;BME280;61070;50.794;7.054;2023-04-10T13:20:36;100745.09;;;19.18;34.29
72925;BME280;61070;50.794;7.054;2023-04-10T13:23:02;100731.09;;;19.30;34.12
72925;BME280;61070;50.794;7.054;2023-04-10T13:25:30;100738.63;;;19.41;34.36
72925;BME280;61070;50.794;7.054;2023-04-10T13:27:57;100731.88;;;19.32;34.18